sensor_id;sensor_type;location;lat;lon;timestamp;pressure;altitude;pressure_sealevel;temperature;humidity
7832;BME280;3961;42.058;25.586;2022-08-01T00:00:38;64746.47;;;22.22;100.00
7832;BME280;3961;42.058;25.586;2022-08-01T00:03:04;64754.88;;;22.31;100.00
7832;BME280;3961;42.058;25.586;2022-08-01T00:05:30;64756.28;;;22.35;100.00
7832;BME280;3961;42.058;25.586;2022-08-01T00:07:56;64743.63;;;22.26;100.00
7832;BME280;3961;42.058;25.586;2022-08-01T00:10:21;64749.38;;;22.24;100.00
7832;BME280;3961;42.058;25.586;2022-08-01T00:12:47;64764.25;;;22.39;100.00
7832;BME280;3961;42.058;25.586;2022-08-01T00:15:14;64751.81;;;22.33;100.00
7832;BME280;3961;42.058;25.586;2022-08-01T00:17:40;64740.84;;;22.19;100.00
7832;BME280;3961;42.058;25.586;2022-08-01T00:20:09;64708.66;;;21.91;100.00
7832;BME280;3961;42.058;25.586;2022-08-01T00:22:35;64731.47;;;22.11;100.00
7832;BME280;3961;42.058;25.586;2022-08-01T00:25:00;64722.72;;;22.03;100.00
7832;BME280;3961;42.058;25.586;2022-08-01T00:27:27;64735.56;;;22.15;100.00
7832;BME280;3961;42.058;25.586;2022-08-01T00:29:53;64706.91;;;21.90;100.00
7832;BME280;3961;42.058;25.586;2022-08-01T00:32:18;64695.56;;;21.77;100.00
7832;BME280;3961;42.058;25.586;2022-08-01T00:34:44;64708.66;;;21.91;100.00
7832;BME280;3961;42.058;25.586;2022-08-01T00:37:09;64696.16;;;21.78;100.00
7832;BME280;3961;42.058;25.586;2022-08-01T00:39:35;64687.63;;;21.73;100.00
7832;BME280;3961;42.058;25.586;2022-08-01T00:42:08;64675.13;;;21.60;100.00
7832;BME280;3961;42.058;25.586;2022-08-01T00:44:34;64680.25;;;21.69;100.00
7832;BME280;3961;42.058;25.586;2022-08-01T00:47:01;64675.56;;;21.65;100.00
7832;BME280;3961;42.058;25.586;2022-08-01T00:49:27;64686.69;;;21.74;100.00
7832;BME280;3961;42.058;25.586;2022-08-01T00:51:54;64688.22;;;21.73;100.00
7832;BME280;3961;42.058;25.586;2022-08-01T00:54:20;64688.22;;;21.73;100.00
7832;BME280;3961;42.058;25.586;2022-08-01T00:56:45;64686.81;;;21.70;100.00
7832;BME280;3961;42.058;25.586;2022-08-01T00:59:12;64663.06;;;21.52;100.00
7832;BME280;3961;42.058;25.586;2022-08-01T01:01:39;64654.09;;;21.41;100.00
7832;BME280;3961;42.058;25.586;2022-08-01T01:04:05;64665.53;;;21.49;100.00
7832;BME280;3961;42.058;25.586;2022-08-01T01:09:37;64666.56;;;21.55;100.00
7832;BME280;3961;42.058;25.586;2022-08-01T01:17:13;64646.72;;;21.37;100.00
7832;BME280;3961;42.058;25.586;2022-08-01T01:19:45;64663.28;;;21.54;100.00
7832;BME280;3961;42.058;25.586;2022-08-01T01:22:24;64658.97;;;21.48;100.00
7832;BME280;3961;42.058;25.586;2022-08-01T01:30:28;64662.84;;;21.49;100.00
7832;BME280;3961;42.058;25.586;2022-08-01T01:32:57;64662.47;;;21.51;100.00
7832;BME280;3961;42.058;25.586;2022-08-01T01:35:28;64668.69;;;21.54;100.00
7832;BME280;3961;42.058;25.586;2022-08-01T01:38:08;64687.25;;;21.75;100.00
7832;BME280;3961;42.058;25.586;2022-08-01T01:40:35;64697.31;;;21.79;100.00
7832;BME280;3961;42.058;25.586;2022-08-01T01:43:02;64702.22;;;21.86;100.00
7832;BME280;3961;42.058;25.586;2022-08-01T01:45:28;64693.66;;;21.80;100.00
7832;BME280;3961;42.058;25.586;2022-08-01T01:47:56;64693.84;;;21.76;100.00
7832;BME280;3961;42.058;25.586;2022-08-01T01:50:23;64696.53;;;21.76;100.00
7832;BME280;3961;42.058;25.586;2022-08-01T01:52:49;64693.84;;;21.76;100.00
7832;BME280;3961;42.058;25.586;2022-08-01T01:55:19;64683.16;;;21.71;100.00
7832;BME280;3961;42.058;25.586;2022-08-01T01:57:45;64676.97;;;21.68;100.00
7832;BME280;3961;42.058;25.586;2022-08-01T02:00:12;64668.47;;;21.52;100.00
7832;BME280;3961;42.058;25.586;2022-08-01T02:02:39;64631.38;;;21.29;100.00
7832;BME280;3961;42.058;25.586;2022-08-01T02:05:07;64651.22;;;21.46;100.00
7832;BME280;3961;42.058;25.586;2022-08-01T02:07:34;64643.19;;;21.34;100.00
7832;BME280;3961;42.058;25.586;2022-08-01T02:10:02;64626.69;;;21.25;100.00
7832;BME280;3961;42.058;25.586;2022-08-01T02:12:29;64629.97;;;21.25;100.00
7832;BME280;3961;42.058;25.586;2022-08-01T02:14:58;64626.09;;;21.24;100.00
7832;BME280;3961;42.058;25.586;2022-08-01T02:17:26;64633.63;;;21.24;100.00
7832;BME280;3961;42.058;25.586;2022-08-01T02:19:53;64642.25;;;21.36;100.00
7832;BME280;3961;42.058;25.586;2022-08-01T02:22:20;64654.50;;;21.46;100.00
7832;BME280;3961;42.058;25.586;2022-08-01T02:25:11;64672.19;;;21.57;100.00
7832;BME280;3961;42.058;25.586;2022-08-01T02:27:45;64663.06;;;21.52;100.00
7832;BME280;3961;42.058;25.586;2022-08-01T02:30:13;64632.31;;;21.27;100.00
7832;BME280;3961;42.058;25.586;2022-08-01T02:32:46;64637.72;;;21.27;100.00
7832;BME280;3961;42.058;25.586;2022-08-01T02:35:27;64616.66;;;21.09;100.00
7832;BME280;3961;42.058;25.586;2022-08-01T02:37:54;64592.94;;;20.91;100.00
7832;BME280;3961;42.058;25.586;2022-08-01T02:40:21;64591.75;;;20.90;100.00
7832;BME280;3961;42.058;25.586;2022-08-01T02:42:50;64588.25;;;20.87;100.00
7832;BME280;3961;42.058;25.586;2022-08-01T02:45:20;64578.56;;;20.80;100.00
7832;BME280;3961;42.058;25.586;2022-08-01T02:47:50;64570.03;;;20.75;100.00
7832;BME280;3961;42.058;25.586;2022-08-01T02:50:17;64558.13;;;20.63;100.00
7832;BME280;3961;42.058;25.586;2022-08-01T02:52:48;64576.22;;;20.78;100.00
7832;BME280;3961;42.058;25.586;2022-08-01T02:55:15;64558.72;;;20.63;100.00
7832;BME280;3961;42.058;25.586;2022-08-01T02:57:43;64570.16;;;20.71;100.00
7832;BME280;3961;42.058;25.586;2022-08-01T03:00:15;64562.78;;;20.67;100.00
7832;BME280;3961;42.058;25.586;2022-08-01T03:02:43;64579.13;;;20.81;100.00
7832;BME280;3961;42.058;25.586;2022-08-01T03:05:12;64576.00;;;20.76;100.00
7832;BME280;3961;42.058;25.586;2022-08-01T03:07:38;64579.50;;;20.79;100.00
7832;BME280;3961;42.058;25.586;2022-08-01T03:10:05;64542.72;;;20.47;100.00
7832;BME280;3961;42.058;25.586;2022-08-01T03:12:33;64587.66;;;20.86;100.00
7832;BME280;3961;42.058;25.586;2022-08-01T03:15:02;64590.59;;;20.89;100.00
7832;BME280;3961;42.058;25.586;2022-08-01T03:17:29;64580.66;;;20.80;100.00
7832;BME280;3961;42.058;25.586;2022-08-01T03:20:03;64575.44;;;20.75;100.00
7832;BME280;3961;42.058;25.586;2022-08-01T03:22:29;64590.59;;;20.89;100.00
7832;BME280;3961;42.058;25.586;2022-08-01T03:24:58;64598.56;;;20.93;100.00
7832;BME280;3961;42.058;25.586;2022-08-01T03:27:25;64590.22;;;20.91;100.00
7832;BME280;3961;42.058;25.586;2022-08-01T03:29:51;64592.56;;;20.93;100.00
7832;BME280;3961;42.058;25.586;2022-08-01T03:32:21;64600.53;;;20.97;100.00
7832;BME280;3961;42.058;25.586;2022-08-01T03:34:47;64587.66;;;20.86;100.00
7832;BME280;3961;42.058;25.586;2022-08-01T03:37:27;64598.56;;;20.93;100.00
7832;BME280;3961;42.058;25.586;2022-08-01T03:40:07;64581.13;;;20.85;100.00
7832;BME280;3961;42.058;25.586;2022-08-01T03:42:42;64608.13;;;21.04;100.00
7832;BME280;3961;42.058;25.586;2022-08-01T03:45:13;64598.41;;;20.98;100.00
7832;BME280;3961;42.058;25.586;2022-08-01T03:47:43;64620.97;;;21.15;100.00
7832;BME280;3961;42.058;25.586;2022-08-01T03:50:10;64617.69;;;21.14;100.00
7832;BME280;3961;42.058;25.586;2022-08-01T03:52:39;64682.34;;;21.68;100.00
7832;BME280;3961;42.058;25.586;2022-08-01T03:55:07;64848.72;;;23.15;95.48
7832;BME280;3961;42.058;25.586;2022-08-01T03:57:34;65075.78;;;25.14;85.00
7832;BME280;3961;42.058;25.586;2022-08-01T04:00:00;65309.69;;;27.12;76.34
7832;BME280;3961;42.058;25.586;2022-08-01T04:02:27;65463.22;;;28.44;69.83
7832;BME280;3961;42.058;25.586;2022-08-01T04:04:54;65526.00;;;28.96;68.34
7832;BME280;3961;42.058;25.586;2022-08-01T04:07:30;65603.97;;;29.65;63.95
7832;BME280;3961;42.058;25.586;2022-08-01T04:09:56;65566.03;;;29.30;64.06
7832;BME280;3961;42.058;25.586;2022-08-01T04:12:22;65747.84;;;30.89;59.53
7832;BME280;3961;42.058;25.586;2022-08-01T04:14:48;65774.59;;;31.07;57.54
7832;BME280;3961;42.058;25.586;2022-08-01T04:17:15;65921.28;;;32.36;54.00
7832;BME280;3961;42.058;25.586;2022-08-01T04:19:41;65893.69;;;32.15;53.52
7832;BME280;3961;42.058;25.586;2022-08-01T04:22:08;66024.69;;;33.25;50.28
7832;BME280;3961;42.058;25.586;2022-08-01T04:24:36;65957.09;;;32.64;51.30
7832;BME280;3961;42.058;25.586;2022-08-01T04:27:05;66100.81;;;33.88;48.03
7832;BME280;3961;42.058;25.586;2022-08-01T04:29:32;66094.13;;;33.87;47.88
7832;BME280;3961;42.058;25.586;2022-08-01T04:31:58;66182.31;;;34.55;47.18
7832;BME280;3961;42.058;25.586;2022-08-01T04:34:28;66057.22;;;33.53;50.69
7832;BME280;3961;42.058;25.586;2022-08-01T04:36:56;66160.44;;;34.44;48.42
7832;BME280;3961;42.058;25.586;2022-08-01T04:39:26;66166.31;;;34.49;46.92
7832;BME280;3961;42.058;25.586;2022-08-01T04:41:54;66157.47;;;34.41;47.39
7832;BME280;3961;42.058;25.586;2022-08-01T04:44:23;66172.03;;;34.51;47.50
7832;BME280;3961;42.058;25.586;2022-08-01T04:46:50;66254.97;;;35.22;45.18
7832;BME280;3961;42.058;25.586;2022-08-01T04:49:16;66306.72;;;35.69;44.76
7832;BME280;3961;42.058;25.586;2022-08-01T04:51:52;66456.38;;;36.92;42.66
7832;BME280;3961;42.058;25.586;2022-08-01T04:54:33;66535.69;;;37.65;40.38
7832;BME280;3961;42.058;25.586;2022-08-01T04:56:59;66405.53;;;36.51;40.43
7832;BME280;3961;42.058;25.586;2022-08-01T04:59:29;66581.41;;;38.04;38.63
7832;BME280;3961;42.058;25.586;2022-08-01T05:02:08;66529.56;;;37.57;38.45
7832;BME280;3961;42.058;25.586;2022-08-01T05:04:35;66590.53;;;38.07;38.12
7832;BME280;3961;42.058;25.586;2022-08-01T05:07:01;66494.56;;;37.20;39.00
7832;BME280;3961;42.058;25.586;2022-08-01T05:09:27;66694.53;;;38.96;35.68
7832;BME280;3961;42.058;25.586;2022-08-01T05:11:53;66500.88;;;37.30;39.70
7832;BME280;3961;42.058;25.586;2022-08-01T05:14:18;66584.78;;;38.05;37.43
7832;BME280;3961;42.058;25.586;2022-08-01T05:16:44;66543.41;;;37.72;36.56
7832;BME280;3961;42.058;25.586;2022-08-01T05:19:11;66481.06;;;37.18;36.85
7832;BME280;3961;42.058;25.586;2022-08-01T05:21:36;66421.34;;;36.62;39.64
7832;BME280;3961;42.058;25.586;2022-08-01T05:24:06;66313.44;;;35.70;40.87
7832;BME280;3961;42.058;25.586;2022-08-01T05:26:31;66323.91;;;35.84;39.22
7832;BME280;3961;42.058;25.586;2022-08-01T05:28:58;66258.31;;;35.23;41.43
7832;BME280;3961;42.058;25.586;2022-08-01T05:31:24;66214.69;;;34.88;43.32
7832;BME280;3961;42.058;25.586;2022-08-01T05:33:50;66232.25;;;35.00;41.82
7832;BME280;3961;42.058;25.586;2022-08-01T05:36:15;66150.91;;;34.28;43.94
7832;BME280;3961;42.058;25.586;2022-08-01T05:38:41;66233.66;;;35.04;41.80
7832;BME280;3961;42.058;25.586;2022-08-01T05:41:07;66102.41;;;33.94;43.61
7832;BME280;3961;42.058;25.586;2022-08-01T05:43:33;66030.63;;;33.30;44.97
7832;BME280;3961;42.058;25.586;2022-08-01T05:45:58;65952.56;;;32.63;45.17
7832;BME280;3961;42.058;25.586;2022-08-01T05:48:24;65861.00;;;31.84;47.26
7832;BME280;3961;42.058;25.586;2022-08-01T05:50:50;65669.59;;;30.17;50.48
7832;BME280;3961;42.058;25.586;2022-08-01T05:53:16;65581.97;;;29.44;53.29
7832;BME280;3961;42.058;25.586;2022-08-01T05:55:42;65510.34;;;28.85;54.50
7832;BME280;3961;42.058;25.586;2022-08-01T05:58:08;65486.75;;;28.64;56.26
7832;BME280;3961;42.058;25.586;2022-08-01T06:00:33;65461.22;;;28.40;57.54
7832;BME280;3961;42.058;25.586;2022-08-01T06:02:59;65416.50;;;28.01;58.61
7832;BME280;3961;42.058;25.586;2022-08-01T06:05:25;65470.28;;;28.50;57.97
7832;BME280;3961;42.058;25.586;2022-08-01T06:07:50;65479.50;;;28.56;58.52
7832;BME280;3961;42.058;25.586;2022-08-01T06:10:16;65464.19;;;28.42;57.48
7832;BME280;3961;42.058;25.586;2022-08-01T06:12:41;65460.66;;;28.39;58.17
7832;BME280;3961;42.058;25.586;2022-08-01T06:15:08;65416.13;;;28.03;58.36
7832;BME280;3961;42.058;25.586;2022-08-01T06:17:34;65422.59;;;28.09;58.21
7832;BME280;3961;42.058;25.586;2022-08-01T06:19:59;65433.19;;;28.18;57.93
7832;BME280;3961;42.058;25.586;2022-08-01T06:22:25;65440.28;;;28.24;58.70
7832;BME280;3961;42.058;25.586;2022-08-01T06:24:51;65453.78;;;28.36;58.70
7832;BME280;3961;42.058;25.586;2022-08-01T06:27:16;65434.00;;;28.21;56.68
7832;BME280;3961;42.058;25.586;2022-08-01T06:29:42;65439.69;;;28.24;57.09
7832;BME280;3961;42.058;25.586;2022-08-01T06:32:09;65413.34;;;27.96;55.45
7832;BME280;3961;42.058;25.586;2022-08-01T06:34:35;65426.13;;;28.12;55.28
7832;BME280;3961;42.058;25.586;2022-08-01T06:37:01;65428.31;;;28.19;55.82
7832;BME280;3961;42.058;25.586;2022-08-01T06:39:26;65433.56;;;28.16;55.19
7832;BME280;3961;42.058;25.586;2022-08-01T06:41:52;65469.09;;;28.49;55.43
7832;BME280;3961;42.058;25.586;2022-08-01T06:44:18;65448.50;;;28.31;50.80
7832;BME280;3961;42.058;25.586;2022-08-01T06:46:43;65434.16;;;28.17;52.20
7832;BME280;3961;42.058;25.586;2022-08-01T06:49:09;65446.50;;;28.27;51.01
7832;BME280;3961;42.058;25.586;2022-08-01T06:51:35;65471.47;;;28.51;49.52
7832;BME280;3961;42.058;25.586;2022-08-01T06:54:00;65478.09;;;28.52;47.32
7832;BME280;3961;42.058;25.586;2022-08-01T06:56:26;65461.81;;;28.40;46.61
7832;BME280;3961;42.058;25.586;2022-08-01T06:58:52;65474.41;;;28.54;46.81
7832;BME280;3961;42.058;25.586;2022-08-01T07:01:18;65491.84;;;28.66;44.87
7832;BME280;3961;42.058;25.586;2022-08-01T07:03:43;65493.38;;;28.65;45.20
7832;BME280;3961;42.058;25.586;2022-08-01T07:06:08;65517.41;;;28.91;44.59
7832;BME280;3961;42.058;25.586;2022-08-01T07:08:34;65534.25;;;29.03;44.98
7832;BME280;3961;42.058;25.586;2022-08-01T07:11:00;65578.88;;;29.46;44.18
7832;BME280;3961;42.058;25.586;2022-08-01T07:13:27;65591.63;;;29.55;41.90
7832;BME280;3961;42.058;25.586;2022-08-01T07:15:52;65629.13;;;29.85;42.65
7832;BME280;3961;42.058;25.586;2022-08-01T07:18:19;65650.56;;;30.05;41.39
7832;BME280;3961;42.058;25.586;2022-08-01T07:20:44;65649.97;;;30.05;40.60
7832;BME280;3961;42.058;25.586;2022-08-01T07:23:13;65663.31;;;30.14;40.25
7832;BME280;3961;42.058;25.586;2022-08-01T07:25:39;65668.44;;;30.23;40.30
7832;BME280;3961;42.058;25.586;2022-08-01T07:28:05;65694.19;;;30.43;40.67
7832;BME280;3961;42.058;25.586;2022-08-01T07:30:31;65685.13;;;30.33;39.13
7832;BME280;3961;42.058;25.586;2022-08-01T07:32:57;65703.00;;;30.44;38.86
7832;BME280;3961;42.058;25.586;2022-08-01T07:35:22;65683.78;;;30.36;38.51
7832;BME280;3961;42.058;25.586;2022-08-01T07:37:48;65702.81;;;30.48;38.97
7832;BME280;3961;42.058;25.586;2022-08-01T07:40:14;65703.22;;;30.46;38.24
7832;BME280;3961;42.058;25.586;2022-08-01T07:42:39;65696.94;;;30.43;38.72
7832;BME280;3961;42.058;25.586;2022-08-01T07:45:09;65697.13;;;30.46;38.15
7832;BME280;3961;42.058;25.586;2022-08-01T07:47:35;65716.19;;;30.57;38.38
7832;BME280;3961;42.058;25.586;2022-08-01T07:50:01;65755.13;;;30.91;39.53
7832;BME280;3961;42.058;25.586;2022-08-01T07:52:27;65748.25;;;30.87;37.83
7832;BME280;3961;42.058;25.586;2022-08-01T07:54:53;65719.34;;;30.62;37.04
7832;BME280;3961;42.058;25.586;2022-08-01T07:57:20;65726.22;;;30.66;37.41
7832;BME280;3961;42.058;25.586;2022-08-01T07:59:45;65678.06;;;30.27;38.05
7832;BME280;3961;42.058;25.586;2022-08-01T08:02:11;65704.00;;;30.49;38.76
7832;BME280;3961;42.058;25.586;2022-08-01T08:04:37;65709.09;;;30.51;38.23
7832;BME280;3961;42.058;25.586;2022-08-01T08:07:02;65700.47;;;30.46;38.59
7832;BME280;3961;42.058;25.586;2022-08-01T08:09:28;65727.41;;;30.67;37.85
7832;BME280;3961;42.058;25.586;2022-08-01T08:11:53;65695.38;;;30.44;38.16
7832;BME280;3961;42.058;25.586;2022-08-01T08:14:19;65727.81;;;30.72;38.03
7832;BME280;3961;42.058;25.586;2022-08-01T08:16:48;65750.22;;;30.91;37.53
7832;BME280;3961;42.058;25.586;2022-08-01T08:19:13;65759.06;;;30.99;36.62
7832;BME280;3961;42.058;25.586;2022-08-01T08:21:39;65761.59;;;30.96;38.83
7832;BME280;3961;42.058;25.586;2022-08-01T08:24:06;65741.78;;;30.82;37.84
7832;BME280;3961;42.058;25.586;2022-08-01T08:26:45;65798.81;;;31.28;37.63
7832;BME280;3961;42.058;25.586;2022-08-01T08:29:11;65772.66;;;31.11;36.19
7832;BME280;3961;42.058;25.586;2022-08-01T08:31:36;65825.97;;;31.59;36.78
7832;BME280;3961;42.058;25.586;2022-08-01T08:34:03;65819.88;;;31.51;37.27
7832;BME280;3961;42.058;25.586;2022-08-01T08:36:28;65839.72;;;31.66;36.80
7832;BME280;3961;42.058;25.586;2022-08-01T08:38:54;65877.75;;;32.01;35.71
7832;BME280;3961;42.058;25.586;2022-08-01T08:41:21;65775.84;;;31.16;37.31
7832;BME280;3961;42.058;25.586;2022-08-01T08:43:47;65833.44;;;31.63;37.10
7832;BME280;3961;42.058;25.586;2022-08-01T08:46:13;65828.91;;;31.54;35.76
7832;BME280;3961;42.058;25.586;2022-08-01T08:48:40;65783.09;;;31.17;37.47
7832;BME280;3961;42.058;25.586;2022-08-01T08:51:06;65842.31;;;31.70;36.70
7832;BME280;3961;42.058;25.586;2022-08-01T08:53:35;65850.59;;;31.78;35.90
7832;BME280;3961;42.058;25.586;2022-08-01T08:56:02;65886.78;;;32.04;35.77
7832;BME280;3961;42.058;25.586;2022-08-01T08:58:29;65868.69;;;31.91;34.76
7832;BME280;3961;42.058;25.586;2022-08-01T09:00:59;65883.84;;;32.01;34.13
7832;BME280;3961;42.058;25.586;2022-08-01T09:03:25;65835.22;;;31.64;35.46
7832;BME280;3961;42.058;25.586;2022-08-01T09:05:51;65811.03;;;31.44;35.96
7832;BME280;3961;42.058;25.586;2022-08-01T09:08:17;65852.34;;;31.72;35.47
7832;BME280;3961;42.058;25.586;2022-08-01T09:10:42;65859.44;;;31.85;34.35
7832;BME280;3961;42.058;25.586;2022-08-01T09:13:13;65888.78;;;32.08;34.44
7832;BME280;3961;42.058;25.586;2022-08-01T09:15:50;65888.56;;;32.05;34.70
7832;BME280;3961;42.058;25.586;2022-08-01T09:18:33;65908.66;;;32.23;35.57
7832;BME280;3961;42.058;25.586;2022-08-01T09:23:41;65936.03;;;32.49;34.15
7832;BME280;3961;42.058;25.586;2022-08-01T09:26:14;65910.41;;;32.24;33.42
7832;BME280;3961;42.058;25.586;2022-08-01T09:28:40;65918.31;;;32.33;34.89
7832;BME280;3961;42.058;25.586;2022-08-01T09:31:11;65887.19;;;32.09;33.68
7832;BME280;3961;42.058;25.586;2022-08-01T09:34:07;65889.56;;;32.11;33.81
7832;BME280;3961;42.058;25.586;2022-08-01T09:36:47;65935.44;;;32.48;34.81
7832;BME280;3961;42.058;25.586;2022-08-01T09:39:24;65962.25;;;32.73;33.50
7832;BME280;3961;42.058;25.586;2022-08-01T09:41:50;65988.25;;;32.96;32.65
7832;BME280;3961;42.058;25.586;2022-08-01T09:44:17;66003.00;;;33.01;33.49
7832;BME280;3961;42.058;25.586;2022-08-01T09:46:54;66007.19;;;33.12;33.47
7832;BME280;3961;42.058;25.586;2022-08-01T09:49:34;65998.69;;;33.02;32.14
7832;BME280;3961;42.058;25.586;2022-08-01T09:52:14;66008.16;;;33.11;33.34
7832;BME280;3961;42.058;25.586;2022-08-01T09:54:41;65977.19;;;32.82;33.98
7832;BME280;3961;42.058;25.586;2022-08-01T09:57:17;65943.72;;;32.55;32.90
7832;BME280;3961;42.058;25.586;2022-08-01T09:59:46;66002.03;;;33.03;33.29
7832;BME280;3961;42.058;25.586;2022-08-01T10:02:13;66001.66;;;33.05;33.29
7832;BME280;3961;42.058;25.586;2022-08-01T10:04:50;66008.38;;;33.13;32.92
7832;BME280;3961;42.058;25.586;2022-08-01T10:07:17;66022.13;;;33.20;31.83
7832;BME280;3961;42.058;25.586;2022-08-01T10:09:44;66024.09;;;33.24;32.96
7832;BME280;3961;42.058;25.586;2022-08-01T10:12:12;65986.88;;;32.92;33.19
7832;BME280;3961;42.058;25.586;2022-08-01T10:14:38;65983.50;;;32.85;32.35
7832;BME280;3961;42.058;25.586;2022-08-01T10:17:09;66026.47;;;33.26;33.65
7832;BME280;3961;42.058;25.586;2022-08-01T10:19:36;66030.03;;;33.29;32.71
7832;BME280;3961;42.058;25.586;2022-08-01T10:22:07;66054.28;;;33.50;32.30
7832;BME280;3961;42.058;25.586;2022-08-01T10:24:36;66007.38;;;33.08;33.32
7832;BME280;3961;42.058;25.586;2022-08-01T10:27:04;66024.88;;;33.20;32.41
7832;BME280;3961;42.058;25.586;2022-08-01T10:29:58;65987.25;;;32.90;33.14
7832;BME280;3961;42.058;25.586;2022-08-01T10:32:29;66010.53;;;33.13;33.32
7832;BME280;3961;42.058;25.586;2022-08-01T10:34:56;66044.84;;;33.42;33.66
7832;BME280;3961;42.058;25.586;2022-08-01T10:37:22;66062.56;;;33.57;32.01
7832;BME280;3961;42.058;25.586;2022-08-01T10:39:50;66056.06;;;33.52;33.04
7832;BME280;3961;42.058;25.586;2022-08-01T10:42:17;66019.38;;;33.20;32.71
7832;BME280;3961;42.058;25.586;2022-08-01T10:44:43;66025.09;;;33.23;32.97
7832;BME280;3961;42.058;25.586;2022-08-01T10:47:25;66028.09;;;33.32;32.31
7832;BME280;3961;42.058;25.586;2022-08-01T10:50:11;65989.44;;;32.97;33.24
7832;BME280;3961;42.058;25.586;2022-08-01T10:52:39;65973.28;;;32.81;33.01
7832;BME280;3961;42.058;25.586;2022-08-01T10:55:06;65965.59;;;32.74;33.48
7832;BME280;3961;42.058;25.586;2022-08-01T10:57:47;65990.22;;;32.93;33.09
7832;BME280;3961;42.058;25.586;2022-08-01T11:00:22;65986.66;;;32.90;32.42
7832;BME280;3961;42.058;25.586;2022-08-01T11:02:58;65977.78;;;32.82;33.98
7832;BME280;3961;42.058;25.586;2022-08-01T11:05:28;65969.53;;;32.75;34.59
7832;BME280;3961;42.058;25.586;2022-08-01T11:07:58;65990.41;;;32.95;33.71
7832;BME280;3961;42.058;25.586;2022-08-01T11:10:41;66006.97;;;33.10;32.68
7832;BME280;3961;42.058;25.586;2022-08-01T11:13:11;66037.13;;;33.35;32.90
7832;BME280;3961;42.058;25.586;2022-08-01T11:15:38;66049.56;;;33.46;33.63
7832;BME280;3961;42.058;25.586;2022-08-01T11:21:00;66019.97;;;33.21;33.50
7832;BME280;3961;42.058;25.586;2022-08-01T11:23:28;65987.06;;;32.95;33.14
7832;BME280;3961;42.058;25.586;2022-08-01T11:28:22;65972.69;;;32.80;32.86
7832;BME280;3961;42.058;25.586;2022-08-01T11:30:53;66009.72;;;33.10;32.53
7832;BME280;3961;42.058;25.586;2022-08-01T11:38:37;65963.81;;;32.72;33.93
7832;BME280;3961;42.058;25.586;2022-08-01T11:44:03;66087.59;;;33.74;32.55
7832;BME280;3961;42.058;25.586;2022-08-01T11:46:58;66094.31;;;33.82;32.07
7832;BME280;3961;42.058;25.586;2022-08-01T11:54:38;65988.06;;;32.93;32.44
7832;BME280;3961;42.058;25.586;2022-08-01T11:57:07;65993.38;;;32.98;32.56
7832;BME280;3961;42.058;25.586;2022-08-01T11:59:42;65937.41;;;32.52;32.78
7832;BME280;3961;42.058;25.586;2022-08-01T12:02:22;65921.28;;;32.36;33.27
7832;BME280;3961;42.058;25.586;2022-08-01T12:05:19;65927.78;;;32.42;33.42
7832;BME280;3961;42.058;25.586;2022-08-01T12:07:49;65937.22;;;32.50;33.66
7832;BME280;3961;42.058;25.586;2022-08-01T12:10:18;65889.56;;;32.11;34.51
7832;BME280;3961;42.058;25.586;2022-08-01T12:12:45;65846.25;;;31.71;34.86
7832;BME280;3961;42.058;25.586;2022-08-01T12:15:12;65874.19;;;31.98;34.09
7832;BME280;3961;42.058;25.586;2022-08-01T12:17:45;65876.16;;;31.95;34.47
7832;BME280;3961;42.058;25.586;2022-08-01T12:20:14;65838.34;;;31.62;34.87
7832;BME280;3961;42.058;25.586;2022-08-01T12:22:40;65870.44;;;31.92;36.05
7832;BME280;3961;42.058;25.586;2022-08-01T12:27:33;65945.88;;;32.55;33.87
7832;BME280;3961;42.058;25.586;2022-08-01T12:29:59;65949.41;;;32.58;33.28
7832;BME280;3961;42.058;25.586;2022-08-01T12:32:31;65941.13;;;32.51;33.19
7832;BME280;3961;42.058;25.586;2022-08-01T12:37:27;65993.16;;;32.95;32.12
7832;BME280;3961;42.058;25.586;2022-08-01T12:39:53;66048.56;;;33.48;31.83
7832;BME280;3961;42.058;25.586;2022-08-01T12:42:19;66042.25;;;33.37;31.67
7832;BME280;3961;42.058;25.586;2022-08-01T12:44:47;66062.56;;;33.57;31.48
7832;BME280;3961;42.058;25.586;2022-08-01T12:47:13;66032.78;;;33.29;31.76
7832;BME280;3961;42.058;25.586;2022-08-01T12:49:42;66022.34;;;33.23;32.21
7832;BME280;3961;42.058;25.586;2022-08-01T12:52:09;66021.53;;;33.20;32.50
7832;BME280;3961;42.058;25.586;2022-08-01T12:55:00;66089.19;;;33.80;32.06
7832;BME280;3961;42.058;25.586;2022-08-01T12:57:26;66090.56;;;33.77;31.44
7832;BME280;3961;42.058;25.586;2022-08-01T12:59:53;66089.00;;;33.85;32.27
7832;BME280;3961;42.058;25.586;2022-08-01T13:02:18;66124.28;;;34.13;31.65
7832;BME280;3961;42.058;25.586;2022-08-01T13:04:50;66131.00;;;34.14;30.95
7832;BME280;3961;42.058;25.586;2022-08-01T13:07:17;66092.16;;;33.83;31.40
7832;BME280;3961;42.058;25.586;2022-08-01T13:09:52;66120.94;;;34.05;31.40
7832;BME280;3961;42.058;25.586;2022-08-01T13:12:17;66125.88;;;34.12;31.08
7832;BME280;3961;42.058;25.586;2022-08-01T13:14:43;66093.91;;;33.84;30.46
7832;BME280;3961;42.058;25.586;2022-08-01T13:17:09;66032.59;;;33.27;30.98
7832;BME280;3961;42.058;25.586;2022-08-01T13:19:45;66009.72;;;33.17;31.17
7832;BME280;3961;42.058;25.586;2022-08-01T13:22:12;66017.22;;;33.21;31.16
7832;BME280;3961;42.058;25.586;2022-08-01T13:24:37;66021.31;;;33.17;31.80
7832;BME280;3961;42.058;25.586;2022-08-01T13:27:04;66033.59;;;33.32;31.78
7832;BME280;3961;42.058;25.586;2022-08-01T13:29:32;66086.22;;;33.78;31.62
7832;BME280;3961;42.058;25.586;2022-08-01T13:31:59;66122.13;;;34.06;31.21
7832;BME280;3961;42.058;25.586;2022-08-01T13:34:32;66114.63;;;34.02;31.16
7832;BME280;3961;42.058;25.586;2022-08-01T13:37:00;66107.53;;;33.96;31.17
7832;BME280;3961;42.058;25.586;2022-08-01T13:39:28;66082.69;;;33.75;30.82
7832;BME280;3961;42.058;25.586;2022-08-01T13:42:07;66072.41;;;33.63;31.91
7832;BME280;3961;42.058;25.586;2022-08-01T13:44:32;66107.13;;;33.91;31.33
7832;BME280;3961;42.058;25.586;2022-08-01T13:46:58;66106.75;;;33.93;30.95
7832;BME280;3961;42.058;25.586;2022-08-01T13:49:24;66101.63;;;33.91;30.44
7832;BME280;3961;42.058;25.586;2022-08-01T13:51:49;66133.16;;;34.20;30.14
7832;BME280;3961;42.058;25.586;2022-08-01T13:54:16;66127.03;;;34.13;29.87